createdAt,value
2023-01-07T00:00:33.032Z,324.02
2023-01-07T00:01:28.014Z,324.34
2023-01-07T00:02:23.130Z,327.25
2023-01-07T00:03:18.273Z,326.27
2023-01-07T00:04:13.509Z,328.23
2023-01-07T00:05:08.449Z,330.88
2023-01-07T00:06:03.549Z,334.25
2023-01-07T00:06:58.688Z,336.65
2023-01-07T00:07:53.774Z,338.73
2023-01-07T00:08:48.887Z,337.34
2023-01-07T00:09:43.899Z,333.57
2023-01-07T00:10:39.007Z,331.55
2023-01-07T00:11:34.087Z,333.23
2023-01-07T00:12:29.197Z,333.23
2023-01-07T00:13:24.207Z,341.20
2023-01-07T00:14:19.319Z,339.08
2023-01-07T00:15:16.584Z,337.34
2023-01-07T00:16:12.254Z,334.25
2023-01-07T00:17:06.841Z,335.96
2023-01-07T00:18:01.994Z,334.59
2023-01-07T00:18:56.985Z,334.59
2023-01-07T00:19:52.111Z,337.00
2023-01-07T00:20:47.103Z,340.14
2023-01-07T00:21:42.354Z,340.14
2023-01-07T00:22:37.223Z,332.22
2023-01-07T00:23:32.317Z,332.89
2023-01-07T00:24:27.320Z,324.34
2023-01-07T00:25:22.435Z,321.48
2023-01-07T00:26:17.459Z,315.30
2023-01-07T00:27:12.551Z,310.82
2023-01-07T00:28:07.543Z,310.82
2023-01-07T00:29:03.233Z,312.30
2023-01-07T00:29:58.484Z,317.43
2023-01-07T00:30:54.189Z,318.98
2023-01-07T00:31:49.349Z,322.11
2023-01-07T00:32:44.632Z,323.70
2023-01-07T00:33:40.317Z,322.42
2023-01-07T00:34:35.569Z,322.74
2023-01-07T00:35:30.770Z,327.25
2023-01-07T00:36:27.126Z,327.58
2023-01-07T00:37:22.238Z,329.55
2023-01-07T00:38:18.067Z,335.27
2023-01-07T00:39:13.142Z,340.14
2023-01-07T00:40:08.283Z,341.91
2023-01-07T00:41:04.079Z,338.04
2023-01-07T00:41:59.250Z,340.85
2023-01-07T00:42:55.036Z,338.73
2023-01-07T00:43:50.391Z,336.65
2023-01-07T00:44:45.537Z,336.30
2023-01-07T00:45:41.361Z,331.55
2023-01-07T00:46:36.573Z,328.56
2023-01-07T00:47:31.661Z,331.21
2023-01-07T00:48:28.153Z,329.88
2023-01-07T00:49:23.543Z,327.25
2023-01-07T00:50:19.319Z,327.90
2023-01-07T00:51:14.439Z,325.95
2023-01-07T00:52:09.538Z,319.91
2023-01-07T00:53:05.384Z,319.60
2023-01-07T00:54:00.514Z,321.16
2023-01-07T00:54:56.460Z,323.70
2023-01-07T00:55:51.539Z,322.11
2023-01-07T00:56:46.686Z,323.06
2023-01-07T00:57:42.638Z,322.74
2023-01-07T00:58:37.755Z,321.79
2023-01-07T00:59:32.973Z,324.02
2023-01-07T01:00:29.436Z,320.22
2023-01-07T01:01:24.588Z,321.79
2023-01-07T01:02:20.376Z,324.02
2023-01-07T01:03:15.452Z,327.58
2023-01-07T01:04:10.855Z,330.55
2023-01-07T01:05:06.569Z,324.98
2023-01-07T01:06:01.706Z,323.06
2023-01-07T01:06:57.493Z,320.22
2023-01-07T01:07:52.728Z,317.74
2023-01-07T01:08:47.975Z,312.60
2023-01-07T01:09:43.662Z,318.67
2023-01-07T01:10:38.774Z,320.85
2023-01-07T01:11:33.880Z,325.30
2023-01-07T01:13:55.434Z,298.38
2023-01-07T01:14:50.381Z,302.23
2023-01-07T01:15:45.740Z,306.18
2023-01-07T01:16:40.874Z,311.41
2023-01-07T01:17:35.815Z,310.52
2023-01-07T01:18:31.190Z,317.13
2023-01-07T01:19:26.150Z,320.85
2023-01-07T01:20:21.222Z,319.91
2023-01-07T01:21:16.447Z,317.43
2023-01-07T01:22:11.527Z,318.98
2023-01-07T01:23:06.750Z,315.00
2023-01-07T01:24:02.198Z,313.79
2023-01-07T01:24:57.186Z,312.30
2023-01-07T01:25:52.246Z,314.39
2023-01-07T01:26:47.485Z,312.89
2023-01-07T01:27:42.672Z,316.82
2023-01-07T01:28:37.776Z,321.79
2023-01-07T01:29:32.869Z,322.42
2023-01-07T01:30:28.072Z,318.98
2023-01-07T01:31:23.238Z,322.11
2023-01-07T01:32:18.354Z,318.05
2023-01-07T01:33:13.450Z,317.43
2023-01-07T01:34:08.661Z,316.52
2023-01-07T01:35:03.758Z,314.09
2023-01-07T01:35:58.853Z,315.00
2023-01-07T01:36:53.934Z,314.09
2023-01-07T01:37:49.161Z,313.49
2023-01-07T01:38:44.230Z,313.49
2023-01-07T01:39:39.350Z,315.60
2023-01-07T01:40:34.424Z,315.91
2023-01-07T01:41:29.760Z,318.98
2023-01-07T01:42:24.687Z,317.13
2023-01-07T01:43:19.910Z,314.69
2023-01-07T01:44:15.140Z,316.52
2023-01-07T01:45:10.237Z,315.91
2023-01-07T01:46:05.297Z,314.09
2023-01-07T01:47:00.619Z,311.41
2023-01-07T01:47:55.704Z,311.41
2023-01-07T01:48:51.043Z,312.60
2023-01-07T01:49:45.994Z,318.36
2023-01-07T01:50:41.219Z,321.79
2023-01-07T01:51:36.297Z,331.88
2023-01-07T01:52:31.385Z,337.00
2023-01-07T01:53:26.443Z,340.49
2023-01-07T01:54:21.956Z,344.06
2023-01-07T01:55:16.923Z,346.24
2023-01-07T01:56:12.099Z,350.31
2023-01-07T01:57:07.051Z,352.57
2023-01-07T01:58:02.285Z,353.33
2023-01-07T01:58:57.390Z,355.62
2023-01-07T01:59:52.471Z,359.52
2023-01-07T02:00:47.720Z,359.91
2023-01-07T02:01:42.930Z,364.31
2023-01-07T02:02:38.023Z,365.93
2023-01-07T02:03:33.093Z,365.12
2023-01-07T02:04:28.398Z,365.12
2023-01-07T02:05:23.362Z,359.52
2023-01-07T02:06:18.552Z,354.47
2023-01-07T02:07:13.654Z,348.82
2023-01-07T02:08:08.707Z,349.93
2023-01-07T02:09:03.929Z,349.93
2023-01-07T02:09:59.030Z,348.08
2023-01-07T02:10:54.246Z,348.45
2023-01-07T02:11:49.299Z,348.08
2023-01-07T02:12:44.427Z,349.56
2023-01-07T02:13:39.494Z,347.71
2023-01-07T02:14:34.910Z,348.45
2023-01-07T02:15:30.683Z,348.08
2023-01-07T02:16:25.820Z,348.82
2023-01-07T02:17:20.902Z,351.81
2023-01-07T02:18:16.149Z,351.43
2023-01-07T02:19:11.826Z,347.34
2023-01-07T02:20:07.053Z,340.85
2023-01-07T02:21:02.183Z,335.62
2023-01-07T02:21:57.427Z,332.89
2023-01-07T02:22:52.482Z,329.55
2023-01-07T02:23:47.708Z,327.58
2023-01-07T02:24:42.803Z,327.25
2023-01-07T02:25:38.221Z,324.66
2023-01-07T02:26:33.708Z,322.74
2023-01-07T02:27:28.462Z,318.98
2023-01-07T02:28:23.558Z,320.22
2023-01-07T02:29:18.688Z,323.06
2023-01-07T02:30:13.737Z,326.60
2023-01-07T02:31:08.961Z,327.58
2023-01-07T02:32:04.119Z,332.22
2023-01-07T02:32:59.190Z,332.55
2023-01-07T02:33:54.406Z,331.88
2023-01-07T02:34:49.527Z,332.55
2023-01-07T02:35:44.651Z,335.27
2023-01-07T02:36:39.771Z,336.65
2023-01-07T02:37:34.824Z,339.44
2023-01-07T02:38:30.229Z,342.27
2023-01-07T02:39:25.295Z,342.98
2023-01-07T02:40:20.379Z,341.56
2023-01-07T02:41:15.476Z,340.14
2023-01-07T02:42:10.860Z,339.44
2023-01-07T02:43:05.917Z,333.91
2023-01-07T02:44:01.032Z,333.91
2023-01-07T02:44:56.148Z,332.89
2023-01-07T02:45:51.314Z,332.22
2023-01-07T02:46:50.590Z,332.55
2023-01-07T02:47:45.847Z,336.65
2023-01-07T02:48:40.794Z,337.69
2023-01-07T02:49:35.881Z,342.27
2023-01-07T02:50:30.981Z,340.85
2023-01-07T02:51:30.138Z,341.20
2023-01-07T02:52:25.233Z,334.59
2023-01-07T02:53:20.366Z,333.91
2023-01-07T02:54:15.336Z,332.55
2023-01-07T02:55:10.721Z,333.91
2023-01-07T02:56:05.766Z,335.27
2023-01-07T02:57:00.917Z,334.93
2023-01-07T02:57:56.008Z,335.96
2023-01-07T02:58:51.115Z,335.27
2023-01-07T02:59:46.194Z,335.62
2023-01-07T03:00:41.485Z,337.34
2023-01-07T03:01:36.923Z,336.65
2023-01-07T03:02:31.788Z,335.62
2023-01-07T03:03:27.009Z,334.59
2023-01-07T03:04:22.067Z,336.30
2023-01-07T03:05:17.208Z,337.00
2023-01-07T03:06:12.569Z,336.65
2023-01-07T03:07:07.653Z,335.62
2023-01-07T03:08:02.745Z,336.30
2023-01-07T03:08:58.017Z,339.08
2023-01-07T03:09:52.953Z,336.65
2023-01-07T03:10:48.022Z,338.73
2023-01-07T03:11:43.280Z,337.69
2023-01-07T03:12:38.620Z,330.88
2023-01-07T03:13:33.854Z,330.88
2023-01-07T03:14:28.934Z,330.55
2023-01-07T03:15:24.048Z,331.88
2023-01-07T03:16:19.181Z,338.04
2023-01-07T03:17:14.260Z,342.27
2023-01-07T03:18:09.460Z,345.15
2023-01-07T03:19:04.441Z,346.97
2023-01-07T03:19:59.682Z,349.19
2023-01-07T03:20:54.790Z,348.08
2023-01-07T03:21:49.899Z,348.82
2023-01-07T03:22:45.367Z,349.56
2023-01-07T03:23:40.349Z,352.95
2023-01-07T03:24:35.601Z,354.09
2023-01-07T03:25:30.677Z,353.71
2023-01-07T03:26:25.894Z,354.09
2023-01-07T03:27:20.967Z,354.85
2023-01-07T03:28:16.412Z,355.62
2023-01-07T03:29:11.402Z,358.34
2023-01-07T03:30:06.809Z,360.31
2023-01-07T03:31:01.890Z,361.10
2023-01-07T03:31:57.067Z,362.30
2023-01-07T03:32:52.257Z,359.13
2023-01-07T03:33:47.361Z,358.34
2023-01-07T03:34:42.648Z,357.95
2023-01-07T03:35:37.802Z,356.78
2023-01-07T03:36:32.934Z,359.91
2023-01-07T03:37:28.114Z,364.71
2023-01-07T03:38:23.418Z,366.75
2023-01-07T03:39:18.543Z,369.64
2023-01-07T03:40:13.683Z,370.90
2023-01-07T03:41:08.978Z,370.90
2023-01-07T03:42:04.126Z,369.64
2023-01-07T03:42:59.408Z,370.48
2023-01-07T03:43:54.510Z,370.90
2023-01-07T03:44:49.703Z,370.90
2023-01-07T03:45:44.881Z,372.58
2023-01-07T03:46:40.168Z,371.74
2023-01-07T03:47:35.180Z,368.40
2023-01-07T03:48:30.421Z,364.31
2023-01-07T03:49:25.560Z,352.57
2023-01-07T03:50:20.998Z,350.31
2023-01-07T03:51:16.171Z,351.06
2023-01-07T03:52:11.223Z,353.71
2023-01-07T03:53:06.376Z,356.01
2023-01-07T03:54:01.581Z,355.62
2023-01-07T03:54:56.866Z,353.71
2023-01-07T03:55:52.152Z,351.81
2023-01-07T03:56:47.313Z,348.82
2023-01-07T03:57:42.626Z,345.88
2023-01-07T03:58:38.344Z,341.91
2023-01-07T03:59:32.978Z,339.79
2023-01-07T04:00:28.125Z,336.30
2023-01-07T04:01:23.441Z,333.23
2023-01-07T04:02:18.488Z,328.89
2023-01-07T04:03:13.928Z,325.62
2023-01-07T04:04:09.397Z,321.48
2023-01-07T04:05:04.149Z,320.85
2023-01-07T04:05:59.317Z,319.91
2023-01-07T04:06:54.607Z,316.82
2023-01-07T04:07:49.904Z,318.36
2023-01-07T04:08:45.068Z,318.67
2023-01-07T04:09:40.305Z,319.91
2023-01-07T04:10:35.505Z,319.91
2023-01-07T04:11:30.773Z,318.67
2023-01-07T04:12:26.090Z,315.60
2023-01-07T04:13:21.284Z,315.00
2023-01-07T04:14:16.572Z,315.00
2023-01-07T04:15:11.725Z,316.82
2023-01-07T04:16:07.028Z,317.74
2023-01-07T04:17:02.163Z,318.98
2023-01-07T04:17:57.479Z,316.21
2023-01-07T04:18:53.033Z,314.69
2023-01-07T04:19:47.915Z,314.39
2023-01-07T04:20:42.945Z,316.52
2023-01-07T04:21:38.145Z,315.91
2023-01-07T04:22:33.267Z,314.09
2023-01-07T04:23:28.573Z,312.89
2023-01-07T04:24:23.974Z,315.30
2023-01-07T04:25:19.028Z,313.49
2023-01-07T04:26:14.199Z,314.09
2023-01-07T04:27:09.390Z,315.30
2023-01-07T04:28:04.714Z,314.69
2023-01-07T04:28:59.987Z,314.69
2023-01-07T04:29:55.158Z,313.49
2023-01-07T04:30:50.605Z,312.89
2023-01-07T04:31:45.634Z,308.48
2023-01-07T04:32:40.933Z,305.89
2023-01-07T04:33:36.217Z,307.33
2023-01-07T04:34:31.267Z,306.46
2023-01-07T04:35:26.422Z,305.32
2023-01-07T04:36:21.779Z,305.89
2023-01-07T04:37:16.800Z,303.35
2023-01-07T04:38:11.978Z,301.95
2023-01-07T04:39:07.146Z,301.67
2023-01-07T04:40:02.602Z,300.29
2023-01-07T04:40:57.750Z,301.40
2023-01-07T04:41:52.920Z,300.84
2023-01-07T04:42:48.052Z,302.79
2023-01-07T04:43:43.250Z,304.47
2023-01-07T04:44:38.535Z,303.91
2023-01-07T04:45:33.805Z,305.32
2023-01-07T04:46:29.049Z,302.51
2023-01-07T04:47:24.254Z,300.84
2023-01-07T04:48:19.391Z,301.67
2023-01-07T04:49:14.565Z,301.95
2023-01-07T04:50:09.692Z,304.76
2023-01-07T04:51:04.900Z,306.18
2023-01-07T04:52:00.060Z,307.90
2023-01-07T04:52:55.362Z,309.64
2023-01-07T04:53:50.386Z,309.64
2023-01-07T04:54:45.570Z,311.11
2023-01-07T04:55:40.724Z,311.70
2023-01-07T04:56:36.010Z,311.70
2023-01-07T04:57:31.298Z,312.60
2023-01-07T04:58:30.738Z,312.00
2023-01-07T04:59:25.732Z,314.09
2023-01-07T05:00:21.044Z,315.30
2023-01-07T05:01:16.148Z,314.39
2023-01-07T05:02:11.306Z,314.09
2023-01-07T05:03:06.486Z,315.60
2023-01-07T05:04:01.615Z,316.52
2023-01-07T05:04:56.650Z,318.05
2023-01-07T05:05:51.677Z,317.13
2023-01-07T05:06:46.687Z,318.98
2023-01-07T05:07:41.721Z,318.67
2023-01-07T05:08:36.758Z,318.05
2023-01-07T05:09:31.770Z,312.60
2023-01-07T05:10:26.865Z,308.77
2023-01-07T05:11:22.026Z,306.46
2023-01-07T05:12:16.929Z,305.04
2023-01-07T05:13:11.968Z,304.47
2023-01-07T05:14:06.995Z,303.63
2023-01-07T05:15:02.123Z,304.19
2023-01-07T05:15:57.710Z,303.91
2023-01-07T05:16:52.383Z,304.76
2023-01-07T05:17:47.462Z,304.47
2023-01-07T05:18:42.447Z,304.76
2023-01-07T05:19:37.479Z,302.51
2023-01-07T05:20:32.522Z,301.40
2023-01-07T05:21:27.698Z,304.76
2023-01-07T05:22:22.583Z,306.46
2023-01-07T05:23:17.795Z,310.52
2023-01-07T05:24:12.851Z,312.89
2023-01-07T05:25:07.873Z,312.89
2023-01-07T05:26:02.871Z,310.52
2023-01-07T05:27:00.192Z,309.06
2023-01-07T05:27:55.244Z,304.76
2023-01-07T05:28:50.284Z,273.74
2023-01-07T05:29:45.307Z,270.80
2023-01-07T05:30:40.409Z,262.99
2023-01-07T05:31:35.460Z,246.95
2023-01-07T05:32:30.510Z,253.83
2023-01-07T05:33:25.648Z,254.23
2023-01-07T05:34:20.590Z,253.05
2023-01-07T05:35:15.576Z,256.61
2023-01-07T05:36:10.605Z,261.52
2023-01-07T05:37:06.604Z,261.10
2023-01-07T05:38:01.865Z,267.05
2023-01-07T05:38:57.136Z,272.37
2023-01-07T05:39:52.321Z,276.51
2023-01-07T05:40:49.495Z,276.51
2023-01-07T05:41:43.055Z,274.42
2023-01-07T05:42:38.052Z,274.88
2023-01-07T05:43:33.469Z,276.04
2023-01-07T05:44:28.525Z,275.11
2023-01-07T05:45:23.791Z,275.58
2023-01-07T05:46:19.128Z,274.88
2023-01-07T05:47:14.230Z,273.05
2023-01-07T05:48:09.353Z,273.51
2023-01-07T05:49:04.658Z,273.97
2023-01-07T05:49:59.725Z,272.83
2023-01-07T05:50:54.902Z,273.97
2023-01-07T05:51:50.170Z,276.74
2023-01-07T05:52:45.325Z,278.15
2023-01-07T05:53:40.629Z,279.33
2023-01-07T05:54:36.381Z,278.15
2023-01-07T05:55:30.883Z,274.65
2023-01-07T05:56:26.077Z,270.35
2023-01-07T05:57:21.379Z,268.58
2023-01-07T05:58:16.556Z,269.91
2023-01-07T05:59:11.715Z,271.25
2023-01-07T06:00:07.054Z,272.83
2023-01-07T06:01:02.308Z,272.15
2023-01-07T06:01:57.452Z,271.47
2023-01-07T06:02:52.586Z,269.91
2023-01-07T06:03:47.863Z,269.47
2023-01-07T06:04:42.858Z,269.47
2023-01-07T06:05:37.887Z,272.15
2023-01-07T06:06:33.044Z,273.28
2023-01-07T06:07:27.943Z,275.11
2023-01-07T06:08:22.968Z,279.09
2023-01-07T06:09:18.003Z,280.77
2023-01-07T06:10:13.061Z,282.70
2023-01-07T06:11:08.086Z,285.90
2023-01-07T06:12:03.471Z,288.16
2023-01-07T06:12:58.119Z,290.46
2023-01-07T06:13:53.167Z,292.53
2023-01-07T06:14:48.193Z,294.10
2023-01-07T06:15:43.285Z,295.96
2023-01-07T06:16:38.373Z,298.38
2023-01-07T06:17:33.501Z,300.57
2023-01-07T06:18:28.433Z,299.74
2023-01-07T06:19:23.482Z,303.91
2023-01-07T06:20:18.561Z,304.47
2023-01-07T06:21:17.362Z,304.47
2023-01-07T06:22:12.477Z,305.61
2023-01-07T06:23:07.427Z,305.04
2023-01-07T06:24:02.475Z,306.46
2023-01-07T06:24:57.546Z,307.33
2023-01-07T06:25:52.702Z,303.63
2023-01-07T06:26:47.766Z,302.51
2023-01-07T06:27:43.081Z,298.93
2023-01-07T06:28:37.974Z,297.03
2023-01-07T06:29:33.040Z,296.49
2023-01-07T06:30:28.210Z,295.43
2023-01-07T06:31:23.483Z,295.96
2023-01-07T06:32:18.390Z,294.10
2023-01-07T06:33:13.425Z,294.90
2023-01-07T06:34:08.604Z,296.76
2023-01-07T06:35:04.382Z,295.96
2023-01-07T06:35:59.544Z,296.76
2023-01-07T06:36:55.558Z,297.03
2023-01-07T06:37:50.707Z,299.47
2023-01-07T06:38:46.048Z,300.57
2023-01-07T06:39:41.643Z,301.95
2023-01-07T06:40:36.974Z,303.07
2023-01-07T06:41:32.245Z,303.91
2023-01-07T06:42:28.678Z,305.32
2023-01-07T06:43:23.837Z,306.75
2023-01-07T06:44:19.750Z,304.47
2023-01-07T06:45:14.942Z,305.89
2023-01-07T06:46:10.492Z,307.61
2023-01-07T06:47:06.110Z,308.19
2023-01-07T06:48:01.414Z,309.35
2023-01-07T06:48:57.174Z,305.89
2023-01-07T06:49:52.334Z,305.61
2023-01-07T06:50:47.643Z,303.63
2023-01-07T06:51:43.340Z,303.63
2023-01-07T06:52:38.538Z,305.89
2023-01-07T06:53:34.374Z,307.61
2023-01-07T06:54:30.008Z,308.19
2023-01-07T06:55:25.273Z,311.11
2023-01-07T06:56:21.061Z,309.64
2023-01-07T06:57:16.288Z,307.61
2023-01-07T06:58:11.549Z,303.35
2023-01-07T06:59:07.429Z,299.20
2023-01-07T07:00:02.785Z,299.20
2023-01-07T07:00:58.480Z,301.12
2023-01-07T07:01:53.861Z,301.12
2023-01-07T07:02:49.182Z,304.76
2023-01-07T07:03:44.869Z,306.46
2023-01-07T07:04:40.136Z,308.77
2023-01-07T07:05:35.323Z,311.70
2023-01-07T07:06:31.791Z,295.96
2023-01-07T07:07:27.003Z,300.02
2023-01-07T07:08:22.900Z,304.47
2023-01-07T07:09:17.988Z,310.23
2023-01-07T07:10:13.269Z,315.30
2023-01-07T07:11:08.978Z,319.60
2023-01-07T07:12:04.252Z,321.48
2023-01-07T07:13:00.078Z,322.42
2023-01-07T07:13:55.376Z,323.38
2023-01-07T07:14:50.638Z,323.70
2023-01-07T07:15:46.562Z,324.66
2023-01-07T07:16:41.835Z,325.30
2023-01-07T07:17:37.252Z,319.60
2023-01-07T07:18:32.451Z,303.63
2023-01-07T07:19:28.763Z,298.65
2023-01-07T07:20:24.380Z,303.07
2023-01-07T07:21:19.422Z,305.32
2023-01-07T07:22:15.134Z,307.33
2023-01-07T07:23:10.467Z,312.30
2023-01-07T07:24:05.871Z,315.30
2023-01-07T07:25:02.065Z,322.74
2023-01-07T07:25:57.345Z,328.56
2023-01-07T07:26:53.095Z,331.55
2023-01-07T07:27:48.351Z,332.89
2023-01-07T07:28:43.620Z,331.21
2023-01-07T07:29:39.609Z,335.27
2023-01-07T07:30:46.630Z,336.65
2023-01-07T07:31:31.651Z,335.96
2023-01-07T07:32:25.858Z,339.79
2023-01-07T07:33:21.132Z,346.97
2023-01-07T07:34:17.749Z,351.06
2023-01-07T07:35:12.864Z,360.31
2023-01-07T07:36:08.138Z,367.58
2023-01-07T07:37:03.413Z,373.01
2023-01-07T07:37:58.664Z,380.83
2023-01-07T07:38:53.923Z,385.23
2023-01-07T07:39:48.936Z,386.79
2023-01-07T07:40:44.039Z,390.88
2023-01-07T07:41:39.083Z,398.35
2023-01-07T07:43:10.725Z,408.10
2023-01-07T07:43:29.964Z,408.10
2023-01-07T07:44:23.991Z,407.85
2023-01-07T07:45:19.122Z,410.86
2023-01-07T07:46:14.260Z,412.39
2023-01-07T07:47:10.751Z,406.11
2023-01-07T07:48:06.129Z,409.35
2023-01-07T07:49:01.333Z,409.85
2023-01-07T07:49:56.589Z,413.92
2023-01-07T07:50:51.662Z,415.47
2023-01-07T07:51:46.788Z,410.11
2023-01-07T07:52:41.729Z,403.65
2023-01-07T07:53:36.826Z,385.45
2023-01-07T07:54:31.900Z,331.21
2023-01-07T07:55:27.008Z,336.30
2023-01-07T07:56:22.192Z,342.63
2023-01-07T07:57:17.250Z,350.31
2023-01-07T07:58:12.336Z,357.95
2023-01-07T07:59:07.360Z,367.16
2023-01-07T08:00:02.406Z,372.58
2023-01-07T08:00:57.762Z,373.43
2023-01-07T08:01:53.044Z,376.86
2023-01-07T08:02:48.268Z,377.30
2023-01-07T08:03:43.705Z,384.56
2023-01-07T08:04:39.090Z,382.58
2023-01-07T08:05:34.355Z,369.64
2023-01-07T08:06:29.711Z,373.43
2023-01-07T08:07:32.467Z,388.60
2023-01-07T08:08:21.453Z,393.88
2023-01-07T08:09:15.978Z,409.85
2023-01-07T08:10:11.351Z,433.01
2023-01-07T08:11:06.655Z,453.63
2023-01-07T08:12:02.051Z,477.67
2023-01-07T08:12:57.530Z,505.56
2023-01-07T08:13:52.575Z,525.07
2023-01-07T08:14:47.616Z,548.83
2023-01-07T08:15:42.652Z,583.92
2023-01-07T08:16:37.827Z,604.56
2023-01-07T08:17:32.880Z,646.78
2023-01-07T08:18:27.786Z,629.09
2023-01-07T08:19:22.887Z,649.93
2023-01-07T08:20:17.898Z,638.73
2023-01-07T08:21:13.080Z,638.73
2023-01-07T08:22:08.164Z,527.14
2023-01-07T08:23:06.032Z,524.24
2023-01-07T08:24:01.364Z,528.39
2023-01-07T08:24:56.781Z,579.85
2023-01-07T08:25:52.274Z,642.42
2023-01-07T08:26:47.679Z,620.89
2023-01-07T08:27:43.135Z,641.80
2023-01-07T08:28:38.594Z,718.57
2023-01-07T08:29:34.157Z,735.21
2023-01-07T08:30:29.572Z,738.46
2023-01-07T08:31:25.100Z,700.46
2023-01-07T08:32:20.661Z,729.58
2023-01-07T08:33:16.246Z,683.93
2023-01-07T08:34:11.572Z,731.98
2023-01-07T08:35:07.019Z,781.16
2023-01-07T08:36:03.598Z,792.28
2023-01-07T08:36:57.478Z,801.32
2023-01-07T08:37:52.472Z,829.71
2023-01-07T08:38:47.662Z,892.38
2023-01-07T08:39:42.593Z,970.20
2023-01-07T08:40:37.806Z,1041.34
2023-01-07T08:41:32.806Z,1079.22
2023-01-07T08:42:27.885Z,1036.49
2023-01-07T08:43:22.945Z,936.18
2023-01-07T08:44:18.127Z,954.94
2023-01-07T08:45:13.029Z,1022.21
2023-01-07T08:46:08.146Z,1101.48
2023-01-07T08:47:03.261Z,1177.25
2023-01-07T08:47:59.167Z,1270.22
2023-01-07T08:48:54.679Z,1411.20
2023-01-07T08:49:50.196Z,1486.64
2023-01-07T08:50:45.921Z,1568.74
2023-01-07T08:51:41.186Z,1606.50
2023-01-07T08:52:36.248Z,1533.60
2023-01-07T08:53:31.339Z,1507.62
2023-01-07T08:54:26.300Z,1575.22
2023-01-07T08:55:21.496Z,1600.72
2023-01-07T08:56:16.390Z,1666.67
2023-01-07T08:57:11.515Z,1465.42
2023-01-07T08:58:06.514Z,1189.84
2023-01-07T08:59:01.603Z,1203.79
2023-01-07T08:59:56.630Z,1279.96
2023-01-07T09:00:51.855Z,1218.07
2023-01-07T09:01:46.918Z,1189.84
2023-01-07T09:02:41.883Z,1195.17
2023-01-07T09:03:36.961Z,1286.13
2023-01-07T09:04:31.918Z,1380.56
2023-01-07T09:05:27.938Z,1476.77
2023-01-07T09:06:23.433Z,1341.71
2023-01-07T09:07:19.420Z,1202.70
2023-01-07T09:08:14.263Z,1281.19
2023-01-07T09:09:10.170Z,1392.07
2023-01-07T09:10:05.531Z,1505.07
2023-01-07T09:11:01.053Z,1429.34
2023-01-07T09:11:56.688Z,1306.26
2023-01-07T09:12:52.216Z,1293.60
2023-01-07T09:13:47.709Z,1279.96
2023-01-07T09:14:43.247Z,1165.94
2023-01-07T09:15:38.707Z,993.30
2023-01-07T09:16:34.207Z,894.17
2023-01-07T09:17:29.572Z,807.62
2023-01-07T09:18:28.386Z,837.52
2023-01-07T09:19:23.668Z,911.26
2023-01-07T09:20:19.141Z,965.99
2023-01-07T09:21:14.738Z,1034.08
2023-01-07T09:22:10.251Z,1074.01
2023-01-07T09:23:05.622Z,1187.72
2023-01-07T09:24:01.266Z,1308.82
2023-01-07T09:24:56.749Z,1481.69
2023-01-07T09:25:52.274Z,1535.36
2023-01-07T09:26:47.892Z,1603.60
2023-01-07T09:27:43.462Z,1672.93
2023-01-07T09:28:38.811Z,1668.75
2023-01-07T09:29:34.330Z,1733.77
2023-01-07T09:30:29.820Z,1710.44
2023-01-07T09:31:25.355Z,1702.81
2023-01-07T09:32:20.512Z,1670.84
2023-01-07T09:33:15.452Z,1701.72
2023-01-07T09:35:36.547Z,1867.13
2023-01-07T09:36:31.906Z,1601.68
2023-01-07T09:37:27.417Z,1533.60
2023-01-07T09:38:23.207Z,1599.76
2023-01-07T09:39:18.633Z,1731.52
2023-01-07T09:40:14.099Z,1801.62
2023-01-07T09:41:09.859Z,1899.00
2023-01-07T09:42:05.235Z,1940.41
2023-01-07T09:43:00.727Z,1963.23
2023-01-07T09:43:59.759Z,1964.68
2023-01-07T09:44:52.836Z,1956.04
2023-01-07T09:45:47.391Z,2025.80
2023-01-07T09:46:43.006Z,1997.01
2023-01-07T09:47:38.396Z,1931.98
2023-01-07T09:48:34.152Z,1827.52
2023-01-07T09:49:29.628Z,1865.83
2023-01-07T09:50:25.339Z,2030.42
2023-01-07T09:51:20.478Z,2153.23
2023-01-07T09:52:16.002Z,2184.94
2023-01-07T09:53:11.477Z,2256.97
2023-01-07T09:54:07.051Z,2204.79
2023-01-07T09:55:02.409Z,2236.18
2023-01-07T09:56:10.936Z,2193.92
2023-01-07T09:56:54.646Z,2127.49
2023-01-07T09:57:49.058Z,2184.94
2023-01-07T09:58:44.554Z,2284.00
2023-01-07T09:59:40.380Z,2311.69
2023-01-07T10:00:35.453Z,2325.78
2023-01-07T10:01:31.061Z,2223.15
2023-01-07T10:02:26.412Z,2243.70
2023-01-07T10:03:22.048Z,2104.02
2023-01-07T10:04:17.552Z,2036.61
2023-01-07T10:05:13.198Z,2035.06
2023-01-07T10:06:08.562Z,2087.57
2023-01-07T10:07:04.038Z,2038.17
2023-01-07T10:08:30.312Z,2063.37
2023-01-07T10:08:56.004Z,2139.42
2023-01-07T10:09:50.517Z,2192.12
2023-01-07T10:10:46.961Z,2202.97
2023-01-07T10:11:43.460Z,2183.16
2023-01-07T10:12:37.093Z,2153.23
2023-01-07T10:13:32.584Z,2141.14
2023-01-07T10:14:28.108Z,2160.19
2023-01-07T10:15:23.609Z,2172.50
2023-01-07T10:16:19.228Z,2154.96
2023-01-07T10:17:14.576Z,2045.98
2023-01-07T10:18:10.646Z,2063.37
2023-01-07T10:19:05.607Z,1960.35
2023-01-07T10:20:01.073Z,1793.15
2023-01-07T10:20:56.393Z,1880.28
2023-01-07T10:21:51.905Z,1947.48
2023-01-07T10:22:47.423Z,1636.03
2023-01-07T10:23:42.874Z,1725.92
2023-01-07T10:24:38.357Z,1867.13
2023-01-07T10:25:34.032Z,1931.98
2023-01-07T10:26:29.493Z,1980.71
2023-01-07T10:27:24.859Z,2112.34
2023-01-07T10:28:20.504Z,2124.10
2023-01-07T10:29:16.000Z,2099.06
2023-01-07T10:30:11.483Z,2094.12
2023-01-07T10:31:07.093Z,1991.05
2023-01-07T10:32:02.588Z,1960.35
2023-01-07T10:32:58.120Z,2028.88
2023-01-07T10:33:53.740Z,2109.00
2023-01-07T10:34:49.086Z,2114.01
2023-01-07T10:35:44.575Z,2132.59
2023-01-07T10:36:40.065Z,2082.68
2023-01-07T10:37:35.565Z,1894.96
2023-01-07T10:38:31.217Z,1916.73
2023-01-07T10:39:26.727Z,1845.20
2023-01-07T10:40:22.223Z,1713.74
2023-01-07T10:41:17.707Z,1589.29
2023-01-07T10:42:13.218Z,1555.94
2023-01-07T10:43:08.695Z,1515.32
2023-01-07T10:44:04.319Z,1611.35
2023-01-07T10:44:59.660Z,1711.54
2023-01-07T10:45:55.288Z,1801.62
2023-01-07T10:46:50.661Z,1940.41
2023-01-07T10:47:46.280Z,2087.57
2023-01-07T10:48:41.760Z,2090.84
2023-01-07T10:49:37.298Z,1679.24
2023-01-07T10:50:32.938Z,1715.94
2023-01-07T10:51:28.520Z,1641.06
2023-01-07T10:52:23.886Z,1565.98
2023-01-07T10:53:19.463Z,1651.21
2023-01-07T10:54:14.790Z,1731.52
2023-01-07T10:55:10.323Z,1749.67
2023-01-07T10:56:05.930Z,1836.31
2023-01-07T10:57:01.499Z,1954.61
2023-01-07T10:57:56.852Z,2074.59
2023-01-07T10:58:52.362Z,2134.29
2023-01-07T10:59:47.841Z,2069.77
2023-01-07T11:00:43.433Z,1941.82
2023-01-07T11:01:39.023Z,1936.19
2023-01-07T11:02:34.393Z,1934.78
2023-01-07T11:03:30.055Z,1791.95
2023-01-07T11:04:25.446Z,1805.27
2023-01-07T11:05:20.933Z,1816.33
2023-01-07T11:06:16.439Z,1788.35
2023-01-07T11:07:11.935Z,1654.28
2023-01-07T11:08:07.454Z,1658.39
2023-01-07T11:09:02.956Z,1303.71
2023-01-07T11:09:58.437Z,1319.17
2023-01-07T11:10:53.914Z,1496.64
2023-01-07T11:11:49.413Z,1616.22
2023-01-07T11:12:45.029Z,1777.63
2023-01-07T11:13:40.375Z,1884.26
2023-01-07T11:14:36.061Z,2021.20
2023-01-07T11:15:31.561Z,2044.41
2023-01-07T11:16:27.025Z,2021.20
2023-01-07T11:17:22.524Z,2069.77
2023-01-07T11:18:18.527Z,2092.48
2023-01-07T11:19:13.543Z,1835.05
2023-01-07T11:20:08.893Z,1800.41
2023-01-07T11:21:04.385Z,1513.60
2023-01-07T11:22:00.032Z,1602.64
2023-01-07T11:22:55.517Z,1628.05
2023-01-07T11:23:51.006Z,1724.81
2023-01-07T11:24:46.621Z,1909.87
2023-01-07T11:25:42.143Z,2022.73
2023-01-07T11:26:37.606Z,2038.17
2023-01-07T11:27:33.361Z,2063.37
2023-01-07T11:28:28.812Z,2170.73